All
Minderoo Airport YMDR Weather
There is no TAF data available at YMDR. Showing TAF data for YOLW (23 mi N).
ONS Terminal Area Forecast (no data for YMDR)
| Date | Time (AWST) | Flight Rules | Wind Dir. | Speed | Type | Height AGL (ft) | Visibility | Remarks | ||||||
|---|---|---|---|---|---|---|---|---|---|---|---|---|---|---|
There is no METAR data available at YMDR. Showing METAR data for YOLW (23 mi N).
Recent ONS METAR history (no data for YMDR)
| Date | Time (AWST) | Flight Rules | Wind Dir. | Speed | Type | Height AGL (ft) | Visibility | Temp (°C) | Temp (°F) | Dew Point (°C) | Dew Point (°F) | Rel. Humid. | Pressure | Density Altitude | Remarks |
|---|---|---|---|---|---|---|---|---|---|---|---|---|---|---|---|
| 03-May | 01:00AM | VFR | 90° | 6 kt | 10000 meters | 24° | 75° | 24° | 75° | 100% | 1013 mb | 1,099 ft | |||
| 03-May | 12:00AM | VFR | 100° | 6 kt | 10000 meters | 24° | 75° | 24° | 75° | 100% | 1013 mb | 1,099 ft | |||
| 02-May | 11:00PM | VFR | 110° | 5 kt | 10000 meters | 24° | 75° | 23° | 73° | 94% | 1013 mb | 1,099 ft | |||
| 02-May | 10:00PM | VFR | 340° | 4 kt | 10000 meters | 25° | 77° | 22° | 71° | 83% | 1013 mb | 1,219 ft | |||
| 02-May | 09:00PM | VFR | 340° | 3 kt | 10000 meters | 26° | 78° | 24° | 75° | 89% | 1013 mb | 1,339 ft | |||
| 02-May | 08:00PM | VFR | 330° | 5 kt | 10000 meters | 26° | 78° | 24° | 75° | 89% | 1012 mb | 1,369 ft | |||
| 02-May | 07:00PM | VFR | 340° | 7 kt | 10000 meters | 27° | 80° | 24° | 75° | 84% | 1012 mb | 1,489 ft | |||
| 02-May | 06:00PM | VFR | 360° | 9 kt | 10000 meters | 27° | 80° | 24° | 75° | 84% | 1011 mb | 1,518 ft | |||
| 02-May | 05:00PM | VFR | 360° | 10 kt | 10000 meters | 29° | 84° | 23° | 73° | 70% | 1011 mb | 1,758 ft | |||
| 02-May | 04:00PM | VFR | 350° | 12 kt | 10000 meters | 30° | 86° | 23° | 73° | 66% | 1010 mb | 1,908 ft | |||
| 02-May | 03:00PM | VFR | 350° | 11 kt | 10000 meters | 31° | 87° | 21° | 69° | 55% | 1011 mb | 1,998 ft | |||
| 02-May | 02:00PM | VFR | 360° | 13 kt | 10000 meters | 31° | 87° | 19° | 66° | 49% | 1011 mb | 1,998 ft | |||
| 02-May | 01:00PM | VFR | 20° | 13 kt | 10000 meters | 33° | 91° | 15° | 59° | 34% | 1011 mb | 2,238 ft | |||
| 02-May | 12:00PM | VFR | 80° | 8 kt | 10000 meters | 33° | 91° | 13° | 55° | 30% | 1012 mb | 2,209 ft | |||
| 02-May | 11:00AM | VFR | 100° | 13 kt | 10000 meters | 31° | 87° | 10° | 50° | 27% | 1013 mb | 1,939 ft | |||
| 02-May | 10:00AM | VFR | 130° | 16 kt | 10000 meters | 29° | 84° | 10° | 50° | 31% | 1014 mb | 1,670 ft | |||
| 02-May | 09:00AM | VFR | 140° | 17 kt | 10000 meters | 27° | 80° | 10° | 50° | 34% | 1014 mb | 1,430 ft | |||
| 02-May | 08:00AM | VFR | 150° | 13 kt | 10000 meters | 24° | 75° | 10° | 50° | 41% | 1013 mb | 1,099 ft | |||
| 02-May | 07:00AM | VFR | 170° | 11 kt | 10000 meters | 23° | 73° | 11° | 51° | 47% | 1013 mb | 979 ft | |||
| 02-May | 06:00AM | VFR | 170° | 13 kt | 10000 meters | 23° | 73° | 11° | 51° | 47% | 1012 mb | 1,009 ft | |||
| 02-May | 05:00AM | VFR | 170° | 13 kt | 10000 meters | 23° | 73° | 11° | 51° | 47% | 1011 mb | 1,038 ft | |||
| 02-May | 04:00AM | VFR | 180° | 14 kt | 10000 meters | 24° | 75° | 11° | 51° | 44% | 1011 mb | 1,158 ft | |||
| 02-May | 03:00AM | VFR | 180° | 13 kt | 10000 meters | 24° | 75° | 11° | 51° | 44% | 1012 mb | 1,129 ft | |||
| 02-May | 02:00AM | VFR | 190° | 11 kt | 10000 meters | 24° | 75° | 12° | 53° | 47% | 1012 mb | 1,129 ft |
Login
| Your browser is unsupported. upgrade your browser |
